createdAt,value
2018-01-28T00:00:10.594Z,1029.15
2018-01-28T00:01:12.463Z,1029.07
2018-01-28T00:02:14.344Z,1029.16
2018-01-28T00:03:16.160Z,1029.10
2018-01-28T00:04:17.992Z,1029.12
2018-01-28T00:05:19.865Z,1029.15
2018-01-28T00:06:21.743Z,1029.19
2018-01-28T00:07:23.626Z,1029.18
2018-01-28T00:08:37.762Z,1029.21
2018-01-28T00:09:39.624Z,1029.22
2018-01-28T00:10:41.518Z,1029.16
2018-01-28T00:11:43.349Z,1029.21
2018-01-28T00:12:45.168Z,1029.17
2018-01-28T00:13:46.957Z,1029.06
2018-01-28T00:14:48.833Z,1029.07
2018-01-28T00:15:50.714Z,1029.09
2018-01-28T00:16:52.587Z,1029.01
2018-01-28T00:18:06.711Z,1029.03
2018-01-28T00:19:08.588Z,1028.96
2018-01-28T00:20:10.470Z,1028.97
2018-01-28T00:21:12.351Z,1028.92
2018-01-28T00:22:14.169Z,1028.94
2018-01-28T00:23:15.957Z,1028.93
2018-01-28T00:24:17.844Z,1028.89
2018-01-28T00:25:19.705Z,1028.93
2018-01-28T00:26:21.577Z,1028.94
2018-01-28T00:27:35.724Z,1028.87
2018-01-28T00:28:37.599Z,1028.93
2018-01-28T00:29:39.486Z,1028.95
2018-01-28T00:30:41.337Z,1029.04
2018-01-28T00:31:43.127Z,1029.05
2018-01-28T00:32:44.923Z,1029.10
2018-01-28T00:33:46.799Z,1029.25
2018-01-28T00:34:48.654Z,1029.31
2018-01-28T00:35:50.519Z,1029.36
2018-01-28T00:37:04.657Z,1029.34
2018-01-28T00:38:06.515Z,1029.34
2018-01-28T00:39:08.377Z,1029.24
2018-01-28T00:40:10.252Z,1029.26
2018-01-28T00:41:12.048Z,1029.20
2018-01-28T00:42:13.842Z,1029.21
2018-01-28T00:43:15.718Z,1029.19
2018-01-28T00:44:17.598Z,1029.17
2018-01-28T00:45:19.438Z,1029.14
2018-01-28T00:46:33.560Z,1029.14
2018-01-28T00:47:35.434Z,1029.18
2018-01-28T00:48:37.316Z,1029.24
2018-01-28T00:49:39.188Z,1029.22
2018-01-28T00:50:40.984Z,1029.16
2018-01-28T00:51:42.774Z,1029.10
2018-01-28T00:52:44.639Z,1028.97
2018-01-28T00:53:46.518Z,1028.90
2018-01-28T00:54:48.401Z,1028.83
2018-01-28T00:56:02.539Z,1028.82
2018-01-28T00:57:04.401Z,1028.79
2018-01-28T00:58:06.270Z,1028.69
2018-01-28T00:59:08.135Z,1028.60
2018-01-28T01:00:09.926Z,1028.67
2018-01-28T01:01:11.736Z,1028.62
2018-01-28T01:02:13.593Z,1028.52
2018-01-28T01:03:15.455Z,1028.53
2018-01-28T01:04:17.320Z,1028.48
2018-01-28T01:05:31.456Z,1028.45
2018-01-28T01:06:33.333Z,1028.50
2018-01-28T01:07:35.213Z,1028.46
2018-01-28T01:08:37.092Z,1028.48
2018-01-28T01:09:38.883Z,1028.47
2018-01-28T01:10:40.697Z,1028.43
2018-01-28T01:11:42.576Z,1028.33
2018-01-28T01:12:44.452Z,1028.31
2018-01-28T01:13:46.317Z,1028.32
2018-01-28T01:15:00.463Z,1028.26
2018-01-28T01:16:02.318Z,1028.29
2018-01-28T01:17:04.178Z,1028.30
2018-01-28T01:18:06.042Z,1028.26
2018-01-28T01:19:07.855Z,1028.26
2018-01-28T01:20:09.663Z,1028.26
2018-01-28T01:21:11.522Z,1028.25
2018-01-28T01:22:13.383Z,1028.25
2018-01-28T01:23:15.263Z,1028.26
2018-01-28T01:24:29.403Z,1028.24
2018-01-28T01:25:31.264Z,1028.30
2018-01-28T01:26:33.128Z,1028.20
2018-01-28T01:27:35.001Z,1028.12
2018-01-28T01:28:36.800Z,1028.20
2018-01-28T01:29:38.588Z,1028.14
2018-01-28T01:30:40.451Z,1028.08
2018-01-28T01:31:42.324Z,1028.03
2018-01-28T01:32:44.200Z,1028.05
2018-01-28T01:33:58.326Z,1028.04
2018-01-28T01:35:00.196Z,1028.08
2018-01-28T01:36:02.051Z,1028.02
2018-01-28T01:37:03.904Z,1028.09
2018-01-28T01:38:05.695Z,1028.13
2018-01-28T01:39:07.490Z,1028.05
2018-01-28T01:40:09.362Z,1028.04
2018-01-28T01:41:11.243Z,1028.09
2018-01-28T01:42:13.115Z,1028.07
2018-01-28T01:43:27.289Z,1028.03
2018-01-28T01:44:29.140Z,1027.99
2018-01-28T01:45:31.000Z,1027.97
2018-01-28T01:46:32.879Z,1027.98
2018-01-28T01:47:34.689Z,1027.97
2018-01-28T01:48:36.488Z,1028.02
2018-01-28T01:49:38.361Z,1028.04
2018-01-28T01:50:40.238Z,1027.98
2018-01-28T01:51:42.118Z,1028.01
2018-01-28T01:52:56.313Z,1027.98
2018-01-28T01:53:58.167Z,1027.97
2018-01-28T01:55:00.030Z,1028.02
2018-01-28T01:56:01.904Z,1027.98
2018-01-28T01:57:03.721Z,1027.95
2018-01-28T01:58:05.508Z,1027.92
2018-01-28T01:59:07.381Z,1027.89
2018-01-28T02:00:09.240Z,1028.03
2018-01-28T02:01:11.093Z,1027.94
2018-01-28T02:02:25.220Z,1027.94
2018-01-28T02:04:44.762Z,1027.91
2018-01-28T02:05:46.640Z,1027.89
2018-01-28T02:06:48.417Z,1027.87
2018-01-28T02:07:50.223Z,1027.86
2018-01-28T02:08:52.072Z,1027.91
2018-01-28T02:09:53.927Z,1027.85
2018-01-28T02:10:55.805Z,1027.76
2018-01-28T02:12:09.946Z,1027.65
2018-01-28T02:13:11.809Z,1027.54
2018-01-28T02:14:13.682Z,1027.47
2018-01-28T02:15:15.537Z,1027.45
2018-01-28T02:16:17.336Z,1027.41
2018-01-28T02:17:19.136Z,1027.39
2018-01-28T02:18:20.988Z,1027.38
2018-01-28T02:19:22.847Z,1027.24
2018-01-28T02:20:24.719Z,1027.25
2018-01-28T02:21:38.844Z,1027.17
2018-01-28T02:22:40.698Z,1027.06
2018-01-28T02:23:42.555Z,1026.98
2018-01-28T02:24:44.428Z,1026.86
2018-01-28T02:25:46.224Z,1027.09
2018-01-28T02:26:48.058Z,1026.98
2018-01-28T02:27:49.871Z,1026.96
2018-01-28T02:28:51.725Z,1026.99
2018-01-28T02:29:53.599Z,1026.97
2018-01-28T02:31:07.738Z,1027.01
2018-01-28T02:32:09.596Z,1026.89
2018-01-28T02:33:11.455Z,1026.87
2018-01-28T02:34:13.327Z,1026.80
2018-01-28T02:35:15.122Z,1026.53
2018-01-28T02:36:16.930Z,1026.73
2018-01-28T02:37:18.803Z,1026.64
2018-01-28T02:38:20.676Z,1026.59
2018-01-28T02:39:22.537Z,1026.57
2018-01-28T02:40:36.671Z,1026.58
2018-01-28T02:41:38.523Z,1026.56
2018-01-28T02:42:40.386Z,1026.50
2018-01-28T02:43:42.255Z,1026.44
2018-01-28T02:44:44.057Z,1026.29
2018-01-28T02:45:45.857Z,1026.28
2018-01-28T02:46:47.718Z,1026.33
2018-01-28T02:47:49.594Z,1026.31
2018-01-28T02:48:51.471Z,1026.33
2018-01-28T02:50:05.588Z,1026.14
2018-01-28T02:51:07.471Z,1026.02
2018-01-28T02:52:09.350Z,1026.04
2018-01-28T02:53:11.218Z,1026.09
2018-01-28T02:54:13.028Z,1026.05
2018-01-28T02:55:14.811Z,1026.06
2018-01-28T02:56:16.700Z,1026.13
2018-01-28T02:57:18.522Z,1026.04
2018-01-28T02:58:20.371Z,1026.05
2018-01-28T02:59:34.492Z,1026.13
2018-01-28T03:00:36.355Z,1025.90
2018-01-28T03:01:38.230Z,1025.98
2018-01-28T03:02:40.085Z,1026.04
2018-01-28T03:03:41.894Z,1026.06
2018-01-28T03:04:43.700Z,1026.17
2018-01-28T03:05:45.559Z,1026.01
2018-01-28T03:06:47.431Z,1026.00
2018-01-28T03:07:49.286Z,1025.86
2018-01-28T03:09:03.427Z,1025.96
2018-01-28T03:10:05.286Z,1025.99
2018-01-28T03:11:07.162Z,1026.11
2018-01-28T03:12:09.036Z,1026.05
2018-01-28T03:13:10.847Z,1026.11
2018-01-28T03:14:12.638Z,1026.03
2018-01-28T03:15:14.494Z,1025.99
2018-01-28T03:16:16.348Z,1025.96
2018-01-28T03:17:18.199Z,1025.96
2018-01-28T03:18:32.328Z,1026.01
2018-01-28T03:19:34.201Z,1026.01
2018-01-28T03:20:36.082Z,1026.07
2018-01-28T03:21:37.953Z,1025.92
2018-01-28T03:22:39.742Z,1025.87
2018-01-28T03:23:41.534Z,1025.92
2018-01-28T03:24:43.393Z,1025.80
2018-01-28T03:25:45.270Z,1025.72
2018-01-28T03:26:47.138Z,1025.83
2018-01-28T03:28:01.318Z,1025.80
2018-01-28T03:29:03.192Z,1025.68
2018-01-28T03:30:05.069Z,1025.46
2018-01-28T03:31:06.940Z,1025.49
2018-01-28T03:32:08.733Z,1025.62
2018-01-28T03:33:10.526Z,1025.59
2018-01-28T03:34:12.396Z,1025.58
2018-01-28T03:35:14.254Z,1025.49
2018-01-28T03:36:16.114Z,1025.54
2018-01-28T03:37:30.284Z,1025.45
2018-01-28T03:38:32.161Z,1025.50
2018-01-28T03:39:34.018Z,1025.46
2018-01-28T03:40:35.894Z,1025.36
2018-01-28T03:41:37.709Z,1025.47
2018-01-28T03:42:39.515Z,1025.39
2018-01-28T03:43:41.375Z,1025.20
2018-01-28T03:44:43.233Z,1025.38
2018-01-28T03:45:45.106Z,1025.25
2018-01-28T03:46:59.234Z,1025.20
2018-01-28T03:48:01.106Z,1025.17
2018-01-28T03:49:02.964Z,1024.98
2018-01-28T03:50:04.822Z,1025.03
2018-01-28T03:51:06.632Z,1024.87
2018-01-28T03:52:08.444Z,1025.06
2018-01-28T03:53:10.312Z,1025.07
2018-01-28T03:54:12.167Z,1024.95
2018-01-28T03:55:14.027Z,1025.10
2018-01-28T03:56:28.152Z,1025.10
2018-01-28T03:57:30.020Z,1025.17
2018-01-28T03:58:31.878Z,1025.18
2018-01-28T03:59:33.739Z,1025.30
2018-01-28T04:00:35.527Z,1025.27
2018-01-28T04:01:37.333Z,1025.25
2018-01-28T04:02:39.185Z,1025.12
2018-01-28T04:03:41.043Z,1025.08
2018-01-28T04:04:42.920Z,1025.20
2018-01-28T04:05:57.048Z,1025.07
2018-01-28T04:06:58.921Z,1025.03
2018-01-28T04:08:00.783Z,1025.04
2018-01-28T04:09:02.637Z,1025.12
2018-01-28T04:10:04.447Z,1025.10
2018-01-28T04:11:06.245Z,1025.09
2018-01-28T04:12:08.096Z,1025.26
2018-01-28T04:13:09.975Z,1025.33
2018-01-28T04:14:11.831Z,1025.44
2018-01-28T04:15:25.968Z,1025.37
2018-01-28T04:16:27.843Z,1025.43
2018-01-28T04:17:29.695Z,1025.50
2018-01-28T04:18:31.554Z,1025.42
2018-01-28T04:19:33.362Z,1025.35
2018-01-28T04:20:35.147Z,1025.48
2018-01-28T04:21:37.009Z,1025.55
2018-01-28T04:22:38.888Z,1025.73
2018-01-28T04:23:40.760Z,1025.74
2018-01-28T04:24:54.905Z,1025.69
2018-01-28T04:25:56.785Z,1025.55
2018-01-28T04:26:58.660Z,1025.47
2018-01-28T04:28:00.516Z,1025.40
2018-01-28T04:29:02.308Z,1025.41
2018-01-28T04:30:04.097Z,1025.45
2018-01-28T04:31:05.957Z,1025.37
2018-01-28T04:32:07.828Z,1025.21
2018-01-28T04:33:09.682Z,1025.38
2018-01-28T04:34:23.826Z,1025.27
2018-01-28T04:35:25.700Z,1025.31
2018-01-28T04:36:27.553Z,1025.27
2018-01-28T04:37:29.408Z,1025.25
2018-01-28T04:38:31.206Z,1025.20
2018-01-28T04:39:32.994Z,1025.03
2018-01-28T04:40:34.854Z,1025.09
2018-01-28T04:41:36.705Z,1024.88
2018-01-28T04:42:38.579Z,1025.08
2018-01-28T04:43:52.723Z,1025.09
2018-01-28T04:44:54.601Z,1024.92
2018-01-28T04:45:56.470Z,1025.13
2018-01-28T04:46:58.331Z,1025.00
2018-01-28T04:48:00.128Z,1024.88
2018-01-28T04:49:01.937Z,1024.92
2018-01-28T04:50:03.815Z,1025.00
2018-01-28T04:51:05.671Z,1024.93
2018-01-28T04:52:07.546Z,1024.90
2018-01-28T04:53:21.688Z,1024.83
2018-01-28T04:54:23.565Z,1024.82
2018-01-28T04:55:25.440Z,1024.84
2018-01-28T04:56:27.302Z,1025.00
2018-01-28T04:57:29.114Z,1025.01
2018-01-28T04:58:30.919Z,1024.98
2018-01-28T04:59:32.781Z,1024.82
2018-01-28T05:00:34.655Z,1024.91
2018-01-28T05:01:36.513Z,1024.80
2018-01-28T05:02:50.632Z,1024.95
2018-01-28T05:03:52.508Z,1024.91
2018-01-28T05:04:54.385Z,1024.96
2018-01-28T05:05:56.261Z,1024.89
2018-01-28T05:06:58.053Z,1024.93
2018-01-28T05:07:59.839Z,1024.88
2018-01-28T05:09:01.693Z,1024.81
2018-01-28T05:10:03.551Z,1024.90
2018-01-28T05:11:05.428Z,1024.90
2018-01-28T05:12:19.570Z,1024.88
2018-01-28T05:13:21.427Z,1025.01
2018-01-28T05:14:23.286Z,1025.02
2018-01-28T05:15:25.162Z,1024.99
2018-01-28T05:16:26.973Z,1025.11
2018-01-28T05:17:28.761Z,1025.15
2018-01-28T05:18:30.621Z,1025.15
2018-01-28T05:19:32.478Z,1025.13
2018-01-28T05:20:34.355Z,1025.25
2018-01-28T05:21:48.495Z,1025.22
2018-01-28T05:22:50.358Z,1025.19
2018-01-28T05:23:52.227Z,1025.18
2018-01-28T05:24:54.105Z,1025.25
2018-01-28T05:25:55.920Z,1025.20
2018-01-28T05:26:57.705Z,1025.25
2018-01-28T05:27:59.557Z,1025.34
2018-01-28T05:29:01.415Z,1025.28
2018-01-28T05:30:03.274Z,1025.35
2018-01-28T05:31:17.422Z,1025.34
2018-01-28T05:32:19.317Z,1025.34
2018-01-28T05:33:21.187Z,1025.42
2018-01-28T05:34:23.046Z,1025.44
2018-01-28T05:35:24.862Z,1025.41
2018-01-28T05:36:26.641Z,1025.49
2018-01-28T05:37:28.501Z,1025.51
2018-01-28T05:38:30.356Z,1025.63
2018-01-28T05:39:32.226Z,1025.62
2018-01-28T05:40:46.401Z,1025.64
2018-01-28T05:41:48.260Z,1025.65
2018-01-28T05:42:50.133Z,1025.62
2018-01-28T05:43:52.008Z,1025.56
2018-01-28T05:44:53.799Z,1025.70
2018-01-28T05:45:55.588Z,1025.73
2018-01-28T05:46:57.447Z,1025.73
2018-01-28T05:47:59.325Z,1025.73
2018-01-28T05:49:01.201Z,1025.87
2018-01-28T05:50:15.339Z,1025.92
2018-01-28T05:51:17.198Z,1025.92
2018-01-28T05:52:19.059Z,1025.83
2018-01-28T05:53:20.934Z,1025.85
2018-01-28T05:54:22.745Z,1025.91
2018-01-28T05:55:24.539Z,1025.80
2018-01-28T05:56:26.416Z,1025.83
2018-01-28T05:57:28.290Z,1025.90
2018-01-28T05:58:30.143Z,1025.85
2018-01-28T05:59:44.317Z,1025.98
2018-01-28T06:00:46.174Z,1025.85
2018-01-28T06:01:48.042Z,1025.88
2018-01-28T06:02:49.900Z,1025.88
2018-01-28T06:03:51.696Z,1025.84
2018-01-28T06:04:53.508Z,1025.84
2018-01-28T06:05:55.384Z,1025.76
2018-01-28T06:06:57.262Z,1025.79
2018-01-28T06:07:59.138Z,1025.80
2018-01-28T06:09:13.278Z,1025.81
2018-01-28T06:10:15.138Z,1025.84
2018-01-28T06:11:16.991Z,1025.82
2018-01-28T06:12:18.855Z,1025.89
2018-01-28T06:13:20.668Z,1025.86
2018-01-28T06:14:22.455Z,1025.89
2018-01-28T06:15:24.313Z,1025.95
2018-01-28T06:16:26.166Z,1025.85
2018-01-28T06:17:28.027Z,1025.87
2018-01-28T06:18:42.170Z,1025.86
2018-01-28T06:19:44.045Z,1025.81
2018-01-28T06:20:45.897Z,1025.77
2018-01-28T06:21:47.755Z,1025.74
2018-01-28T06:22:49.561Z,1025.85
2018-01-28T06:23:51.354Z,1025.84
2018-01-28T06:24:53.210Z,1025.83
2018-01-28T06:25:55.069Z,1025.82
2018-01-28T06:26:56.947Z,1025.82
2018-01-28T06:28:11.140Z,1025.74
2018-01-28T06:29:13.018Z,1025.77
2018-01-28T06:30:14.867Z,1025.76
2018-01-28T06:31:16.726Z,1025.80
2018-01-28T06:32:18.542Z,1025.78
2018-01-28T06:33:20.350Z,1025.73
2018-01-28T06:34:22.213Z,1025.77
2018-01-28T06:35:24.063Z,1025.69
2018-01-28T06:36:25.923Z,1025.75
2018-01-28T06:37:40.063Z,1025.65
2018-01-28T06:38:41.929Z,1025.60
2018-01-28T06:39:43.808Z,1025.61
2018-01-28T06:40:45.685Z,1025.58
2018-01-28T06:41:47.495Z,1025.57
2018-01-28T06:42:49.289Z,1025.64
2018-01-28T06:43:51.154Z,1025.76
2018-01-28T06:44:53.031Z,1025.79
2018-01-28T06:45:54.891Z,1025.78
2018-01-28T06:47:09.035Z,1025.81
2018-01-28T06:48:10.902Z,1025.76
2018-01-28T06:49:12.771Z,1025.81
2018-01-28T06:50:14.632Z,1025.86
2018-01-28T06:51:16.451Z,1025.85
2018-01-28T06:52:18.262Z,1025.86
2018-01-28T06:53:20.123Z,1025.92
2018-01-28T06:54:22.001Z,1025.91
2018-01-28T06:55:23.862Z,1025.93
2018-01-28T06:56:38.035Z,1025.95
2018-01-28T06:57:39.909Z,1025.98
2018-01-28T06:58:42.025Z,1026.02
2018-01-28T06:59:43.904Z,1026.01
2018-01-28T07:00:45.692Z,1025.99
2018-01-28T07:01:47.500Z,1026.06
2018-01-28T07:02:49.373Z,1026.03
2018-01-28T07:03:51.234Z,1026.00
2018-01-28T07:04:53.134Z,1025.98
2018-01-28T07:06:07.308Z,1026.04
2018-01-28T07:07:09.223Z,1026.11
2018-01-28T07:08:11.084Z,1026.16
2018-01-28T07:09:12.964Z,1026.14
2018-01-28T07:10:14.781Z,1026.14
2018-01-28T07:11:16.598Z,1026.18
2018-01-28T07:12:19.146Z,1026.14
2018-01-28T07:13:21.091Z,1026.15
2018-01-28T07:14:22.952Z,1026.16
2018-01-28T07:15:37.145Z,1026.21
2018-01-28T07:16:39.008Z,1026.24
2018-01-28T07:17:40.887Z,1026.25
2018-01-28T07:18:42.767Z,1026.31
2018-01-28T07:19:44.581Z,1026.34
2018-01-28T07:20:46.423Z,1026.40
2018-01-28T07:21:48.327Z,1026.40
2018-01-28T07:22:50.211Z,1026.47
2018-01-28T07:23:52.095Z,1026.51
2018-01-28T07:25:06.240Z,1026.52
2018-01-28T07:26:08.120Z,1026.61
2018-01-28T07:27:09.975Z,1026.57
2018-01-28T07:28:11.834Z,1026.55
2018-01-28T07:29:13.687Z,1026.55
2018-01-28T07:30:15.509Z,1026.65
2018-01-28T07:31:17.361Z,1026.55
2018-01-28T07:32:19.225Z,1026.55
2018-01-28T07:33:21.106Z,1026.55
2018-01-28T07:34:35.253Z,1026.47
2018-01-28T07:35:37.130Z,1026.51
2018-01-28T07:36:38.996Z,1026.43
2018-01-28T07:37:40.876Z,1026.34
2018-01-28T07:38:42.691Z,1026.35
2018-01-28T07:39:44.483Z,1026.33
2018-01-28T07:40:46.345Z,1026.35
2018-01-28T07:41:48.226Z,1026.45
2018-01-28T07:42:50.113Z,1026.49
2018-01-28T07:44:04.256Z,1026.52
2018-01-28T07:45:06.122Z,1026.49
2018-01-28T07:46:07.995Z,1026.44
2018-01-28T07:47:09.862Z,1026.41
2018-01-28T07:48:11.672Z,1026.42
2018-01-28T07:49:13.468Z,1026.40
2018-01-28T07:50:15.329Z,1026.44
2018-01-28T07:51:17.210Z,1026.45
2018-01-28T07:52:19.087Z,1026.46
2018-01-28T07:53:33.266Z,1026.47
2018-01-28T07:54:35.152Z,1026.40
2018-01-28T07:55:37.032Z,1026.44
2018-01-28T07:56:38.909Z,1026.37
2018-01-28T07:57:40.705Z,1026.45
2018-01-28T07:58:42.501Z,1026.53
2018-01-28T07:59:44.363Z,1026.52
2018-01-28T08:00:46.228Z,1026.48
2018-01-28T08:01:48.086Z,1026.49
2018-01-28T08:03:02.284Z,1026.48
2018-01-28T08:04:04.170Z,1026.46
2018-01-28T08:05:06.041Z,1026.46
2018-01-28T08:06:07.901Z,1026.45
2018-01-28T08:07:09.696Z,1026.49
2018-01-28T08:08:11.516Z,1026.43
2018-01-28T08:09:13.374Z,1026.43
2018-01-28T08:10:15.242Z,1026.51
2018-01-28T08:11:17.077Z,1026.49
2018-01-28T08:12:31.264Z,1026.55
2018-01-28T08:13:33.180Z,1026.55
2018-01-28T08:14:35.035Z,1026.59
2018-01-28T08:15:36.954Z,1026.65
2018-01-28T08:16:38.885Z,1026.64
2018-01-28T08:17:40.838Z,1026.66
2018-01-28T08:18:42.958Z,1026.65
2018-01-28T08:19:44.895Z,1026.64
2018-01-28T08:20:46.711Z,1026.60
2018-01-28T08:22:00.843Z,1026.67
2018-01-28T08:23:02.722Z,1026.71
2018-01-28T08:24:04.575Z,1026.75
2018-01-28T08:25:06.455Z,1026.73
2018-01-28T08:26:08.282Z,1026.81
2018-01-28T08:27:10.101Z,1026.73
2018-01-28T08:28:11.975Z,1026.79
2018-01-28T08:29:13.847Z,1026.72
2018-01-28T08:30:15.706Z,1026.73
2018-01-28T08:31:29.834Z,1026.67
2018-01-28T08:32:31.699Z,1026.69
2018-01-28T08:33:33.581Z,1026.73
2018-01-28T08:34:35.434Z,1026.80
2018-01-28T08:35:37.235Z,1026.84
2018-01-28T08:36:39.050Z,1026.88
2018-01-28T08:37:40.932Z,1026.91
2018-01-28T08:38:42.796Z,1026.98
2018-01-28T08:39:44.655Z,1026.96
2018-01-28T08:40:58.780Z,1027.02
2018-01-28T08:42:00.646Z,1027.04
2018-01-28T08:43:02.527Z,1027.01
2018-01-28T08:44:04.405Z,1027.06
2018-01-28T08:45:06.217Z,1027.03
2018-01-28T08:46:08.017Z,1027.05
2018-01-28T08:47:09.830Z,1027.10
2018-01-28T08:48:11.647Z,1027.09
2018-01-28T08:49:13.461Z,1027.08
2018-01-28T08:50:27.607Z,1027.16
2018-01-28T08:51:29.492Z,1027.13
2018-01-28T08:52:31.350Z,1027.16
2018-01-28T08:53:33.222Z,1027.13
2018-01-28T08:54:35.023Z,1027.15
2018-01-28T08:55:36.836Z,1027.18
2018-01-28T08:56:38.692Z,1027.18
2018-01-28T08:57:40.552Z,1027.24
2018-01-28T08:58:42.416Z,1027.18
2018-01-28T08:59:56.564Z,1027.23
2018-01-28T09:00:58.416Z,1027.28
2018-01-28T09:02:00.289Z,1027.28
2018-01-28T09:03:02.169Z,1027.36
2018-01-28T09:04:03.990Z,1027.32
2018-01-28T09:05:05.897Z,1027.33
2018-01-28T09:06:07.771Z,1027.36
2018-01-28T09:07:09.652Z,1027.41
2018-01-28T09:08:11.512Z,1027.42
2018-01-28T09:09:25.656Z,1027.37
2018-01-28T09:10:27.562Z,1027.43
2018-01-28T09:11:29.427Z,1027.41
2018-01-28T09:12:31.305Z,1027.43
2018-01-28T09:13:33.120Z,1027.49
2018-01-28T09:14:34.915Z,1027.43
2018-01-28T09:15:36.781Z,1027.49
2018-01-28T09:16:38.663Z,1027.46
2018-01-28T09:17:40.525Z,1027.47
2018-01-28T09:18:54.646Z,1027.47
2018-01-28T09:19:56.506Z,1027.55
2018-01-28T09:20:58.370Z,1027.50
2018-01-28T09:22:00.247Z,1027.54
2018-01-28T09:23:02.047Z,1027.56
2018-01-28T09:24:03.861Z,1027.56
2018-01-28T09:25:05.723Z,1027.55
2018-01-28T09:26:07.581Z,1027.59
2018-01-28T09:27:09.443Z,1027.59
2018-01-28T09:28:23.591Z,1027.56
2018-01-28T09:29:25.473Z,1027.56
2018-01-28T09:30:27.331Z,1027.59
2018-01-28T09:31:29.231Z,1027.56
2018-01-28T09:32:31.008Z,1027.55
2018-01-28T09:33:32.827Z,1027.54
2018-01-28T09:34:34.706Z,1027.57
2018-01-28T09:35:36.588Z,1027.59
2018-01-28T09:36:38.476Z,1027.61
2018-01-28T09:37:52.683Z,1027.63
2018-01-28T09:38:54.576Z,1027.56
2018-01-28T09:39:56.519Z,1027.60
2018-01-28T09:40:58.400Z,1027.67
2018-01-28T09:42:00.225Z,1027.69
2018-01-28T09:43:02.042Z,1027.72
2018-01-28T09:44:03.926Z,1027.83
2018-01-28T09:45:05.802Z,1027.84
2018-01-28T09:46:07.695Z,1027.82
2018-01-28T09:47:21.825Z,1027.90
2018-01-28T09:48:23.737Z,1027.88
2018-01-28T09:49:25.606Z,1027.97
2018-01-28T09:50:27.457Z,1028.00
2018-01-28T09:51:29.278Z,1027.98
2018-01-28T09:52:31.097Z,1028.00
2018-01-28T09:53:32.951Z,1027.99
2018-01-28T09:54:34.809Z,1027.98
2018-01-28T09:55:36.669Z,1027.97
2018-01-28T09:56:50.779Z,1027.96
2018-01-28T09:57:52.606Z,1027.96
2018-01-28T09:58:54.465Z,1028.01
2018-01-28T09:59:56.347Z,1028.04
2018-01-28T10:00:58.182Z,1028.04
2018-01-28T10:01:59.973Z,1027.98
2018-01-28T10:03:01.774Z,1028.04
2018-01-28T10:04:03.637Z,1027.99
2018-01-28T10:05:05.520Z,1028.02
2018-01-28T10:06:19.695Z,1028.00
2018-01-28T10:07:21.568Z,1028.00
2018-01-28T10:08:23.495Z,1028.03
2018-01-28T10:09:25.348Z,1028.03
2018-01-28T10:10:27.148Z,1028.02
2018-01-28T10:11:28.946Z,1028.00
2018-01-28T10:12:30.829Z,1027.98
2018-01-28T10:13:32.709Z,1027.99
2018-01-28T10:14:34.591Z,1028.04
2018-01-28T10:15:48.742Z,1028.00
2018-01-28T10:16:50.630Z,1027.95
2018-01-28T10:17:52.508Z,1027.96
2018-01-28T10:18:54.366Z,1027.96
2018-01-28T10:19:56.164Z,1027.97
2018-01-28T10:20:57.960Z,1027.97
2018-01-28T10:21:59.827Z,1027.90
2018-01-28T10:23:01.709Z,1027.89
2018-01-28T10:24:03.572Z,1027.87
2018-01-28T10:25:17.701Z,1027.84
2018-01-28T10:26:19.676Z,1027.84
2018-01-28T10:27:21.557Z,1027.85
2018-01-28T10:28:23.434Z,1027.92
2018-01-28T10:29:25.258Z,1027.85
2018-01-28T10:30:27.058Z,1027.85
2018-01-28T10:31:28.920Z,1027.89
2018-01-28T10:32:30.801Z,1027.89
2018-01-28T10:33:32.678Z,1027.95
2018-01-28T10:34:46.819Z,1027.95
2018-01-28T10:35:48.707Z,1027.98
2018-01-28T10:36:50.587Z,1027.97
2018-01-28T10:37:52.479Z,1028.04
2018-01-28T10:38:54.271Z,1028.06
2018-01-28T10:39:56.070Z,1027.98
2018-01-28T10:40:57.925Z,1027.97
2018-01-28T10:41:59.798Z,1027.94
2018-01-28T10:43:01.677Z,1027.90
2018-01-28T10:44:15.809Z,1027.87
2018-01-28T10:45:17.675Z,1027.90
2018-01-28T10:46:19.526Z,1027.90
2018-01-28T10:47:21.388Z,1027.99
2018-01-28T10:48:23.190Z,1027.99
2018-01-28T10:49:25.006Z,1028.03
2018-01-28T10:50:26.868Z,1028.06
2018-01-28T10:51:28.725Z,1028.08
2018-01-28T10:52:30.598Z,1028.06
2018-01-28T10:53:44.727Z,1027.99
2018-01-28T10:54:46.588Z,1027.98
2018-01-28T10:55:48.446Z,1027.98
2018-01-28T10:56:50.320Z,1027.91
2018-01-28T10:57:52.134Z,1027.87
2018-01-28T10:58:53.942Z,1027.90
2018-01-28T10:59:55.821Z,1027.88
2018-01-28T11:00:57.702Z,1027.89
2018-01-28T11:01:59.557Z,1027.90
2018-01-28T11:03:13.702Z,1027.88
2018-01-28T11:04:15.572Z,1027.92
2018-01-28T11:05:17.430Z,1027.94
2018-01-28T11:06:19.298Z,1027.97
2018-01-28T11:07:21.087Z,1028.02
2018-01-28T11:08:22.886Z,1027.99
2018-01-28T11:09:24.758Z,1027.95
2018-01-28T11:10:26.644Z,1027.96
2018-01-28T11:11:28.528Z,1027.95
2018-01-28T11:12:42.688Z,1027.93
2018-01-28T11:13:44.560Z,1027.90
2018-01-28T11:14:46.443Z,1027.88
2018-01-28T11:15:48.344Z,1027.94
2018-01-28T11:16:50.137Z,1027.97
2018-01-28T11:17:51.951Z,1027.94
2018-01-28T11:18:53.813Z,1027.95
2018-01-28T11:19:55.693Z,1027.91
2018-01-28T11:20:57.556Z,1027.96
2018-01-28T11:22:11.710Z,1027.97
2018-01-28T11:23:13.601Z,1028.00
2018-01-28T11:24:15.456Z,1028.02
2018-01-28T11:25:17.331Z,1027.93
2018-01-28T11:26:19.160Z,1028.01
2018-01-28T11:27:20.976Z,1028.03
2018-01-28T11:28:22.852Z,1028.04
2018-01-28T11:29:24.716Z,1028.08
2018-01-28T11:30:26.599Z,1028.05
2018-01-28T11:31:40.746Z,1028.10
2018-01-28T11:32:42.628Z,1028.08
2018-01-28T11:33:44.507Z,1028.07
2018-01-28T11:34:46.406Z,1028.08
2018-01-28T11:35:48.246Z,1028.05
2018-01-28T11:36:50.043Z,1028.05
2018-01-28T11:37:51.995Z,1028.04
2018-01-28T11:38:53.842Z,1028.02
2018-01-28T11:39:55.708Z,1028.05
2018-01-28T11:41:09.877Z,1028.01
2018-01-28T11:42:11.774Z,1027.96
2018-01-28T11:43:13.657Z,1027.85
2018-01-28T11:44:15.519Z,1027.84
2018-01-28T11:45:17.327Z,1027.88
2018-01-28T11:46:19.152Z,1027.89
2018-01-28T11:47:21.019Z,1027.82
2018-01-28T11:48:22.880Z,1027.83
2018-01-28T11:49:24.760Z,1027.83
2018-01-28T11:50:38.920Z,1027.80
2018-01-28T11:51:40.778Z,1027.81
2018-01-28T11:52:42.669Z,1027.77
2018-01-28T11:53:44.552Z,1027.84
2018-01-28T11:54:46.370Z,1027.88
2018-01-28T11:55:48.210Z,1027.91
2018-01-28T11:56:50.067Z,1027.84
2018-01-28T11:57:51.959Z,1027.81
2018-01-28T11:58:53.825Z,1027.86
2018-01-28T12:00:08.314Z,1027.90
2018-01-28T12:01:10.144Z,1027.88
2018-01-28T12:02:12.000Z,1027.82
2018-01-28T12:03:13.861Z,1027.87
2018-01-28T12:04:15.662Z,1027.86
2018-01-28T12:05:17.485Z,1027.89
2018-01-28T12:06:19.343Z,1027.81
2018-01-28T12:07:21.217Z,1027.80
2018-01-28T12:08:23.104Z,1027.81
2018-01-28T12:09:37.264Z,1027.88
2018-01-28T12:10:39.125Z,1027.90
2018-01-28T12:11:41.012Z,1027.90
2018-01-28T12:12:42.883Z,1027.85
2018-01-28T12:13:44.683Z,1027.82
2018-01-28T12:14:46.495Z,1027.85
2018-01-28T12:15:48.334Z,1027.82
2018-01-28T12:16:50.139Z,1027.81
2018-01-28T12:17:52.020Z,1027.75
2018-01-28T12:19:06.160Z,1027.69
2018-01-28T12:20:08.033Z,1027.73
2018-01-28T12:21:09.896Z,1027.68
2018-01-28T12:22:11.771Z,1027.71
2018-01-28T12:23:13.591Z,1027.74
2018-01-28T12:24:15.415Z,1027.73
2018-01-28T12:25:17.317Z,1027.80
2018-01-28T12:26:19.196Z,1027.74
2018-01-28T12:27:21.090Z,1027.74
2018-01-28T12:28:35.230Z,1027.79
2018-01-28T12:29:37.119Z,1027.84
2018-01-28T12:30:38.977Z,1027.82
2018-01-28T12:31:40.884Z,1027.86
2018-01-28T12:32:42.633Z,1027.84
2018-01-28T12:33:44.472Z,1027.91
2018-01-28T12:34:46.370Z,1027.81
2018-01-28T12:35:48.239Z,1027.84
2018-01-28T12:36:50.135Z,1027.87
2018-01-28T12:38:04.260Z,1027.83
2018-01-28T12:39:06.202Z,1027.76
2018-01-28T12:40:08.102Z,1027.70
2018-01-28T12:41:10.199Z,1027.78
2018-01-28T12:42:13.339Z,1027.84
2018-01-28T12:43:16.306Z,1027.89
2018-01-28T12:44:18.721Z,1027.83
2018-01-28T12:45:21.483Z,1027.81